createdAt,value
2022-12-31T07:34:34.812Z,45.28
2022-12-31T07:40:12.195Z,49.97
2022-12-31T07:45:24.424Z,48.00
2022-12-31T07:50:26.777Z,53.38
2022-12-31T07:55:28.965Z,47.57
2022-12-31T08:00:31.343Z,52.40
2022-12-31T08:06:07.790Z,41.78
2022-12-31T08:11:28.823Z,46.10
2022-12-31T08:16:31.297Z,45.03
2022-12-31T08:21:43.722Z,55.15
2022-12-31T08:26:58.790Z,53.80
2022-12-31T08:32:06.971Z,47.60
2022-12-31T08:37:16.947Z,47.40
2022-12-31T08:43:06.597Z,45.15
2022-12-31T08:48:26.732Z,45.60
2022-12-31T08:53:29.112Z,43.73
2022-12-31T08:58:44.895Z,48.15
2022-12-31T09:03:59.166Z,50.92
2022-12-31T09:09:16.545Z,53.60
2022-12-31T09:14:18.597Z,44.50
2022-12-31T09:19:20.767Z,48.15
2022-12-31T09:24:23.182Z,56.20
2022-12-31T09:29:41.550Z,47.10
2022-12-31T09:35:12.986Z,46.42
2022-12-31T09:40:54.458Z,51.67
2022-12-31T09:46:02.424Z,50.93
2022-12-31T09:51:29.621Z,55.45
2022-12-31T09:57:17.704Z,57.60
2022-12-31T10:02:41.251Z,54.97
2022-12-31T10:08:12.765Z,55.63
2022-12-31T10:13:27.387Z,49.75
2022-12-31T10:18:44.350Z,45.20
2022-12-31T10:24:13.826Z,39.53
2022-12-31T10:29:48.103Z,39.72
2022-12-31T10:35:15.086Z,45.63
2022-12-31T10:40:41.921Z,46.93
2022-12-31T10:46:33.567Z,43.72
2022-12-31T10:51:44.557Z,41.03
2022-12-31T10:57:17.625Z,46.20
2022-12-31T11:02:57.510Z,43.87
2022-12-31T11:08:14.677Z,49.67
2022-12-31T11:13:28.899Z,46.37
2022-12-31T11:18:42.153Z,45.78
2022-12-31T11:24:23.032Z,52.13
2022-12-31T11:29:54.128Z,52.73
2022-12-31T11:35:15.007Z,48.97
2022-12-31T11:40:54.273Z,47.38
2022-12-31T11:45:59.375Z,51.92
2022-12-31T11:51:36.168Z,50.87
2022-12-31T11:56:41.703Z,50.00
2022-12-31T12:01:43.747Z,49.75
2022-12-31T12:06:46.115Z,51.50
2022-12-31T12:12:00.134Z,47.45
2022-12-31T12:17:06.753Z,46.05
2022-12-31T12:22:35.072Z,47.73
2022-12-31T12:27:37.260Z,43.43
2022-12-31T12:32:39.371Z,44.30
2022-12-31T12:37:41.448Z,44.22
2022-12-31T12:42:48.466Z,47.03
2022-12-31T12:47:56.640Z,49.03
2022-12-31T12:53:17.245Z,40.35
2022-12-31T12:58:42.119Z,41.93
2022-12-31T13:04:33.900Z,48.25
2022-12-31T13:09:58.038Z,47.20
2022-12-31T13:15:18.534Z,53.90
2022-12-31T13:20:39.291Z,50.30
2022-12-31T13:26:03.080Z,50.83
2022-12-31T13:31:09.579Z,46.58
2022-12-31T13:36:18.730Z,51.37
2022-12-31T13:41:33.297Z,46.15
2022-12-31T13:46:51.901Z,45.65
2022-12-31T13:52:27.658Z,45.17
2022-12-31T13:57:36.805Z,44.05
2022-12-31T14:03:05.172Z,43.22
2022-12-31T14:08:07.725Z,46.87
2022-12-31T14:13:09.740Z,45.70
2022-12-31T14:18:33.146Z,44.47
2022-12-31T14:23:56.777Z,48.10
2022-12-31T14:29:11.257Z,45.30
2022-12-31T14:34:30.060Z,44.85
2022-12-31T14:40:07.764Z,44.30
2022-12-31T14:45:28.598Z,47.93
2022-12-31T14:50:33.909Z,43.33
2022-12-31T14:55:38.920Z,40.22
2022-12-31T15:00:53.368Z,39.67
2022-12-31T15:06:29.091Z,40.07
2022-12-31T15:11:55.908Z,39.08
2022-12-31T15:17:34.528Z,38.97
2022-12-31T15:22:53.756Z,50.33
2022-12-31T15:27:58.827Z,39.50
2022-12-31T15:33:05.159Z,38.75
2022-12-31T15:38:13.061Z,39.10
2022-12-31T15:43:29.299Z,35.63
2022-12-31T15:49:03.492Z,34.33
2022-12-31T15:54:16.301Z,35.10
2022-12-31T15:59:20.500Z,34.10
2022-12-31T16:04:32.615Z,43.50
2022-12-31T16:09:35.950Z,39.78
2022-12-31T16:14:43.677Z,41.20
2022-12-31T16:19:48.715Z,41.72
2022-12-31T16:25:29.607Z,36.67
2022-12-31T16:30:22.852Z,40.10
2022-12-31T16:35:29.848Z,33.53
2022-12-31T16:40:31.953Z,35.75
2022-12-31T16:45:36.492Z,37.23
2022-12-31T16:50:38.670Z,41.67
2022-12-31T16:55:41.328Z,37.80
2022-12-31T17:00:44.374Z,42.08
2022-12-31T17:06:09.341Z,41.03
2022-12-31T17:11:23.506Z,47.53
2022-12-31T17:16:26.241Z,52.85
2022-12-31T17:21:31.303Z,49.40
2022-12-31T17:26:38.236Z,49.38
2022-12-31T17:31:57.501Z,45.45
2022-12-31T17:37:02.591Z,51.17
2022-12-31T17:42:04.877Z,49.53
2022-12-31T17:47:11.802Z,59.28
2022-12-31T17:52:15.751Z,54.65
2022-12-31T17:57:27.568Z,56.77
2022-12-31T18:02:29.768Z,56.45
2022-12-31T18:07:32.068Z,56.28
2022-12-31T18:12:35.553Z,60.07
2022-12-31T18:17:37.623Z,60.75
2022-12-31T18:22:41.369Z,60.80
2022-12-31T18:27:43.467Z,61.37
2022-12-31T18:32:46.021Z,73.07
2022-12-31T18:37:49.303Z,75.30
2022-12-31T18:42:51.399Z,80.32
2022-12-31T18:47:55.620Z,87.43
2022-12-31T18:52:57.712Z,80.85
2022-12-31T18:57:59.830Z,80.68
2022-12-31T19:03:02.361Z,91.10
2022-12-31T19:08:04.668Z,86.05
2022-12-31T19:13:06.779Z,84.82
2022-12-31T19:18:09.661Z,81.67
2022-12-31T19:23:21.521Z,77.97
2022-12-31T19:28:25.946Z,82.78
2022-12-31T19:33:28.106Z,82.75
2022-12-31T19:38:32.175Z,77.17
2022-12-31T19:43:34.281Z,80.60
2022-12-31T19:48:36.371Z,93.70
2022-12-31T19:53:38.871Z,88.17
2022-12-31T19:58:41.360Z,89.43
2022-12-31T20:03:43.475Z,78.82
2022-12-31T20:08:46.589Z,79.37
2022-12-31T20:13:50.702Z,78.00
2022-12-31T20:18:52.862Z,87.82
2022-12-31T20:23:55.690Z,83.47
2022-12-31T20:28:57.753Z,81.50
2022-12-31T20:33:59.847Z,82.10
2022-12-31T20:39:01.909Z,78.82
2022-12-31T20:44:04.247Z,81.73
2022-12-31T20:49:06.913Z,82.10
2022-12-31T20:54:10.831Z,92.40
2022-12-31T20:59:12.989Z,79.87
2022-12-31T21:04:15.448Z,92.77
2022-12-31T21:09:18.009Z,89.70
2022-12-31T21:14:20.444Z,94.13
2022-12-31T21:19:22.546Z,94.77
2022-12-31T21:24:24.646Z,103.25
2022-12-31T21:29:29.992Z,95.85
2022-12-31T21:34:36.284Z,88.10
2022-12-31T21:39:38.385Z,92.60
2022-12-31T21:44:40.458Z,93.90
2022-12-31T21:49:45.663Z,92.67
2022-12-31T21:55:06.094Z,95.67
2022-12-31T22:00:43.612Z,88.72
2022-12-31T22:05:52.848Z,83.90
2022-12-31T22:10:55.171Z,97.40
2022-12-31T22:16:04.357Z,94.97
2022-12-31T22:21:19.172Z,100.25
2022-12-31T22:26:25.535Z,99.90
2022-12-31T22:31:32.158Z,97.10
2022-12-31T22:36:34.360Z,96.85
2022-12-31T22:41:36.457Z,96.83
2022-12-31T22:46:38.612Z,89.60
2022-12-31T22:51:56.305Z,87.93
2022-12-31T22:57:01.366Z,84.15
2022-12-31T23:02:03.653Z,86.17
2022-12-31T23:07:07.401Z,85.40
2022-12-31T23:12:10.437Z,86.93
2022-12-31T23:17:38.249Z,88.37
